createdAt,value
2022-08-07T00:00:32.425Z,0.00
2022-08-07T00:01:44.084Z,0.00
2022-08-07T00:02:40.416Z,0.00
2022-08-07T00:03:36.892Z,0.00
2022-08-07T00:04:32.298Z,0.00
2022-08-07T00:05:32.183Z,0.00
2022-08-07T00:06:33.490Z,0.00
2022-08-07T00:07:40.403Z,0.00
2022-08-07T00:08:32.037Z,0.00
2022-08-07T00:09:35.626Z,0.00
2022-08-07T00:10:31.946Z,0.00
2022-08-07T00:11:33.023Z,0.00
2022-08-07T00:12:31.841Z,0.00
2022-08-07T00:13:31.794Z,0.00
2022-08-07T00:14:31.850Z,0.00
2022-08-07T00:15:38.290Z,0.00
2022-08-07T00:16:31.647Z,0.00
2022-08-07T00:17:35.204Z,0.00
2022-08-07T00:18:31.550Z,0.00
2022-08-07T00:20:00.644Z,0.00
2022-08-07T00:20:34.551Z,0.00
2022-08-07T00:21:55.397Z,0.00
2022-08-07T00:22:35.066Z,0.00
2022-08-07T00:23:31.308Z,0.00
2022-08-07T00:24:31.786Z,0.00
2022-08-07T00:25:37.491Z,0.00
2022-08-07T00:26:48.778Z,0.00
2022-08-07T00:27:51.845Z,0.00
2022-08-07T00:28:31.783Z,0.00
2022-08-07T00:29:31.454Z,0.00
2022-08-07T00:30:30.966Z,0.00
2022-08-07T00:31:37.846Z,0.00
2022-08-07T00:32:30.866Z,0.00
2022-08-07T00:33:32.815Z,0.00
2022-08-07T00:34:30.770Z,0.00
2022-08-07T00:35:30.724Z,0.00
2022-08-07T00:36:30.673Z,0.00
2022-08-07T00:37:30.635Z,0.00
2022-08-07T00:38:31.733Z,0.00
2022-08-07T00:39:30.569Z,0.00
2022-08-07T00:40:39.687Z,0.00
2022-08-07T00:41:30.429Z,0.00
2022-08-07T00:42:30.381Z,0.00
2022-08-07T00:44:02.096Z,0.00
2022-08-07T00:44:30.281Z,0.00
2022-08-07T00:45:30.234Z,0.00
2022-08-07T00:46:30.184Z,0.00
2022-08-07T00:48:07.570Z,0.00
2022-08-07T00:48:30.909Z,0.00
2022-08-07T00:50:21.528Z,0.00
2022-08-07T00:50:50.475Z,0.00
2022-08-07T00:51:57.422Z,0.00
2022-08-07T00:52:29.890Z,0.00
2022-08-07T00:53:38.415Z,0.00
2022-08-07T00:54:29.793Z,0.00
2022-08-07T00:56:03.431Z,0.00
2022-08-07T00:56:30.187Z,0.00
2022-08-07T00:57:29.914Z,0.00
2022-08-07T00:58:29.598Z,0.00
2022-08-07T00:59:35.491Z,0.00
2022-08-07T01:00:29.498Z,0.00
2022-08-07T01:01:29.511Z,0.00
2022-08-07T01:02:29.712Z,0.00
2022-08-07T01:03:56.734Z,0.00
2022-08-07T01:04:30.328Z,0.00
2022-08-07T01:05:29.251Z,0.00
2022-08-07T01:06:29.346Z,0.00
2022-08-07T01:07:30.851Z,0.00
2022-08-07T01:08:29.108Z,0.00
2022-08-07T01:09:51.130Z,0.00
2022-08-07T01:10:29.009Z,0.00
2022-08-07T01:12:09.280Z,0.00
2022-08-07T01:12:30.901Z,0.00
2022-08-07T01:13:28.858Z,0.00
2022-08-07T01:14:29.052Z,0.00
2022-08-07T01:15:36.088Z,0.00
2022-08-07T01:16:30.236Z,0.00
2022-08-07T01:17:28.964Z,0.00
2022-08-07T01:18:28.623Z,0.00
2022-08-07T01:19:32.446Z,0.00
2022-08-07T01:20:30.816Z,0.00
2022-08-07T01:21:28.573Z,0.00
2022-08-07T01:22:29.350Z,0.00
2022-08-07T01:23:38.412Z,0.00
2022-08-07T01:24:28.322Z,0.00
2022-08-07T01:25:40.615Z,0.00
2022-08-07T01:26:28.221Z,0.00
2022-08-07T01:27:32.416Z,0.00
2022-08-07T01:28:28.142Z,0.00
2022-08-07T01:29:31.407Z,0.00
2022-08-07T01:30:28.137Z,0.00
2022-08-07T01:31:29.965Z,0.00
2022-08-07T01:32:27.926Z,0.00
2022-08-07T01:33:30.117Z,0.00
2022-08-07T01:34:30.953Z,0.00
2022-08-07T01:35:53.198Z,0.00
2022-08-07T01:36:33.355Z,0.00
2022-08-07T01:37:27.920Z,0.00
2022-08-07T01:38:29.145Z,0.00
2022-08-07T01:39:40.402Z,0.00
2022-08-07T01:40:27.531Z,0.00
2022-08-07T01:41:27.481Z,0.00
2022-08-07T01:42:38.985Z,0.00
2022-08-07T01:43:27.385Z,0.00
2022-08-07T01:44:27.334Z,0.00
2022-08-07T01:45:37.157Z,0.00
2022-08-07T01:46:27.260Z,0.00
2022-08-07T01:48:19.605Z,0.00
2022-08-07T01:48:29.784Z,0.00
2022-08-07T01:49:27.087Z,0.00
2022-08-07T01:50:28.969Z,0.00
2022-08-07T01:52:01.071Z,0.00
2022-08-07T01:52:26.940Z,0.00
2022-08-07T01:54:09.684Z,0.00
2022-08-07T01:54:32.786Z,0.00
2022-08-07T01:55:26.791Z,0.00
2022-08-07T01:56:28.818Z,0.00
2022-08-07T01:57:26.691Z,0.00
2022-08-07T01:58:27.498Z,0.00
2022-08-07T01:59:31.168Z,0.00
2022-08-07T02:00:28.624Z,0.00
2022-08-07T02:01:59.897Z,0.00
2022-08-07T02:03:05.699Z,0.00
2022-08-07T02:03:42.885Z,0.00
2022-08-07T02:04:26.635Z,0.00
2022-08-07T02:05:47.918Z,0.00
2022-08-07T02:06:31.441Z,0.00
2022-08-07T02:07:36.114Z,0.00
2022-08-07T02:08:26.153Z,0.00
2022-08-07T02:09:52.063Z,0.00
2022-08-07T02:10:26.055Z,0.00
2022-08-07T02:11:30.854Z,0.00
2022-08-07T02:12:31.004Z,0.00
2022-08-07T02:13:56.480Z,0.00
2022-08-07T02:14:35.626Z,0.00
2022-08-07T02:15:28.058Z,0.00
2022-08-07T02:16:28.676Z,0.00
2022-08-07T02:17:31.483Z,0.00
2022-08-07T02:18:26.005Z,0.00
2022-08-07T02:20:07.137Z,0.00
2022-08-07T02:20:25.568Z,0.00
2022-08-07T02:21:25.518Z,0.00
2022-08-07T02:22:25.807Z,0.00
2022-08-07T02:23:25.410Z,0.00
2022-08-07T02:24:25.361Z,0.00
2022-08-07T02:26:10.963Z,0.00
2022-08-07T02:26:33.071Z,0.00
2022-08-07T02:27:25.271Z,0.00
2022-08-07T02:28:25.814Z,0.00
2022-08-07T02:29:25.117Z,0.00
2022-08-07T02:30:25.066Z,0.00
2022-08-07T02:31:29.198Z,0.00
2022-08-07T02:32:26.924Z,0.00
2022-08-07T02:33:24.916Z,0.00
2022-08-07T02:34:24.867Z,0.00
2022-08-07T02:36:28.988Z,0.00
2022-08-07T02:36:30.362Z,0.00
2022-08-07T02:37:24.718Z,0.00
2022-08-07T02:38:28.133Z,0.00
2022-08-07T02:39:43.755Z,0.00
2022-08-07T02:40:30.046Z,0.00
2022-08-07T02:41:24.557Z,0.00
2022-08-07T02:42:24.472Z,0.00
2022-08-07T02:43:24.423Z,0.00
2022-08-07T02:44:27.505Z,0.00
2022-08-07T02:45:58.838Z,0.00
2022-08-07T02:46:24.274Z,0.00
2022-08-07T02:47:24.224Z,0.00
2022-08-07T02:48:24.176Z,0.00
2022-08-07T02:49:56.227Z,0.00
2022-08-07T02:50:24.077Z,0.00
2022-08-07T02:51:41.971Z,0.00
2022-08-07T02:52:32.018Z,0.00
2022-08-07T02:53:23.926Z,0.00
2022-08-07T02:54:25.158Z,0.00
2022-08-07T02:55:28.405Z,0.00
2022-08-07T02:56:23.779Z,0.00
2022-08-07T02:57:23.731Z,0.00
2022-08-07T02:58:23.681Z,0.00
2022-08-07T02:59:23.981Z,0.00
2022-08-07T03:00:23.583Z,0.00
2022-08-07T03:01:35.823Z,0.00
2022-08-07T03:02:23.484Z,0.00
2022-08-07T03:03:23.512Z,0.00
2022-08-07T03:04:23.385Z,0.00
2022-08-07T03:05:23.338Z,0.00
2022-08-07T03:06:32.075Z,0.00
2022-08-07T03:07:58.920Z,0.00
2022-08-07T03:08:26.946Z,0.00
2022-08-07T03:09:43.628Z,0.00
2022-08-07T03:10:23.506Z,0.00
2022-08-07T03:11:25.304Z,0.00
2022-08-07T03:12:30.729Z,0.00
2022-08-07T03:13:22.939Z,0.00
2022-08-07T03:14:22.890Z,0.00
2022-08-07T03:15:30.246Z,0.00
2022-08-07T03:16:22.988Z,0.00
2022-08-07T03:17:22.743Z,0.00
2022-08-07T03:18:24.474Z,0.00
2022-08-07T03:19:22.644Z,0.00
2022-08-07T03:20:22.593Z,0.00
2022-08-07T03:21:22.626Z,0.00
2022-08-07T03:22:22.496Z,0.00
2022-08-07T03:23:22.445Z,0.00
2022-08-07T03:24:26.842Z,0.00
2022-08-07T03:25:22.345Z,0.00
2022-08-07T03:26:23.656Z,0.00
2022-08-07T03:27:30.775Z,0.00
2022-08-07T03:28:37.582Z,0.00
2022-08-07T03:29:22.149Z,0.00
2022-08-07T03:30:24.324Z,0.00
2022-08-07T03:31:24.485Z,0.00
2022-08-07T03:32:21.998Z,0.00
2022-08-07T03:33:21.949Z,0.00
2022-08-07T03:34:22.601Z,0.00
2022-08-07T03:35:26.059Z,0.00
2022-08-07T03:36:21.802Z,0.00
2022-08-07T03:37:21.752Z,0.00
2022-08-07T03:38:29.647Z,0.00
2022-08-07T03:39:45.790Z,0.00
2022-08-07T03:40:22.127Z,0.00
2022-08-07T03:41:41.971Z,0.00
2022-08-07T03:42:21.505Z,0.00
2022-08-07T03:43:21.457Z,0.00
2022-08-07T03:44:31.906Z,0.00
2022-08-07T03:45:30.737Z,0.00
2022-08-07T03:46:21.308Z,0.00
2022-08-07T03:47:21.262Z,0.00
2022-08-07T03:48:21.215Z,0.00
2022-08-07T03:49:21.159Z,0.00
2022-08-07T03:50:22.891Z,0.00
2022-08-07T03:51:21.065Z,0.00
2022-08-07T03:52:22.727Z,0.00
2022-08-07T03:53:20.959Z,0.00
2022-08-07T03:54:35.377Z,0.00
2022-08-07T03:55:20.861Z,0.00
2022-08-07T03:56:32.712Z,0.00
2022-08-07T03:58:33.841Z,0.00
2022-08-07T03:58:34.731Z,0.00
2022-08-07T03:59:21.014Z,0.00
2022-08-07T04:00:21.003Z,0.00
2022-08-07T04:01:22.432Z,0.00
2022-08-07T04:02:20.516Z,0.00
2022-08-07T04:03:20.467Z,0.00
2022-08-07T04:04:20.413Z,0.00
2022-08-07T04:05:20.364Z,0.00
2022-08-07T04:06:37.552Z,0.00
2022-08-07T04:07:22.862Z,0.00
2022-08-07T04:08:20.928Z,0.00
2022-08-07T04:09:22.940Z,0.00
2022-08-07T04:10:20.122Z,0.00
2022-08-07T04:12:24.613Z,0.00
2022-08-07T04:12:25.108Z,0.00
2022-08-07T04:13:19.966Z,0.00
2022-08-07T04:14:37.631Z,0.00
2022-08-07T04:15:19.867Z,0.00
2022-08-07T04:16:30.975Z,0.00
2022-08-07T04:17:21.562Z,0.00
2022-08-07T04:18:57.549Z,0.00
2022-08-07T04:19:19.875Z,0.00
2022-08-07T04:20:19.623Z,0.00
2022-08-07T04:21:19.570Z,0.00
2022-08-07T04:22:19.522Z,0.00
2022-08-07T04:23:19.660Z,0.00
2022-08-07T04:24:30.683Z,0.00
2022-08-07T04:25:19.372Z,0.00
2022-08-07T04:26:21.690Z,0.00
2022-08-07T04:27:20.404Z,0.00
2022-08-07T04:28:21.831Z,0.00
2022-08-07T04:29:19.170Z,0.00
2022-08-07T04:30:21.284Z,0.00
2022-08-07T04:31:19.781Z,0.00
2022-08-07T04:32:19.024Z,0.00
2022-08-07T04:33:18.972Z,0.00
2022-08-07T04:34:24.301Z,4.00
2022-08-07T04:35:18.874Z,4.00
2022-08-07T04:36:18.826Z,4.00
2022-08-07T04:37:20.563Z,0.00
2022-08-07T04:38:18.725Z,0.00
2022-08-07T04:39:25.447Z,0.00
2022-08-07T04:40:19.624Z,0.00
2022-08-07T04:41:19.279Z,0.00
2022-08-07T04:42:18.525Z,4.00
2022-08-07T04:43:18.475Z,4.00
2022-08-07T04:44:19.044Z,4.00
2022-08-07T04:45:22.736Z,4.00
2022-08-07T04:46:20.145Z,4.00
2022-08-07T04:47:57.280Z,4.00
2022-08-07T04:48:18.229Z,4.00
2022-08-07T04:49:24.627Z,0.00
2022-08-07T04:50:18.127Z,0.00
2022-08-07T04:51:18.412Z,0.00
2022-08-07T04:52:18.470Z,4.00
2022-08-07T04:53:39.980Z,4.00
2022-08-07T04:54:17.926Z,4.00
2022-08-07T04:58:11.626Z,4.00
2022-08-07T04:58:14.763Z,4.00
2022-08-07T04:58:15.997Z,4.00
2022-08-07T04:58:38.840Z,4.00
2022-08-07T05:00:11.430Z,4.00
2022-08-07T05:00:30.487Z,4.00
2022-08-07T05:01:18.374Z,4.00
2022-08-07T05:02:20.605Z,4.00
2022-08-07T05:04:00.352Z,4.00
2022-08-07T05:04:18.139Z,4.00
2022-08-07T05:05:53.569Z,4.00
2022-08-07T05:06:20.183Z,8.00
2022-08-07T05:07:20.711Z,4.00
2022-08-07T05:08:17.231Z,4.00
2022-08-07T05:09:17.179Z,8.00
2022-08-07T05:10:17.128Z,4.00
2022-08-07T05:11:19.445Z,8.00
2022-08-07T05:12:26.786Z,8.00
2022-08-07T05:14:52.257Z,8.00
2022-08-07T05:14:55.525Z,8.00
2022-08-07T05:15:21.685Z,8.00
2022-08-07T05:16:16.828Z,8.00
2022-08-07T05:17:17.504Z,8.00
2022-08-07T05:18:16.728Z,8.00
2022-08-07T05:19:16.680Z,12.00
2022-08-07T05:20:16.632Z,12.00
2022-08-07T05:21:25.264Z,12.00
2022-08-07T05:22:27.713Z,12.00
2022-08-07T05:23:16.508Z,8.00
2022-08-07T05:24:16.428Z,8.00
2022-08-07T05:25:25.669Z,8.00
2022-08-07T05:26:24.273Z,12.00
2022-08-07T05:28:03.523Z,12.00
2022-08-07T05:28:22.628Z,12.00
2022-08-07T05:29:16.183Z,12.00
2022-08-07T05:30:16.129Z,12.00
2022-08-07T05:31:16.756Z,12.00
2022-08-07T05:32:16.032Z,12.00
2022-08-07T05:33:15.980Z,8.00
2022-08-07T05:34:15.948Z,8.00
2022-08-07T05:35:15.881Z,8.00
2022-08-07T05:36:22.691Z,12.00
2022-08-07T05:37:15.781Z,12.00
2022-08-07T05:39:01.206Z,12.00
2022-08-07T05:40:06.571Z,12.00
2022-08-07T05:40:19.055Z,12.00
2022-08-07T05:41:16.681Z,12.00
2022-08-07T05:42:15.616Z,12.00
2022-08-07T05:43:15.482Z,12.00
2022-08-07T05:44:15.431Z,12.00
2022-08-07T05:45:28.278Z,12.00
2022-08-07T05:46:15.332Z,12.00
2022-08-07T05:47:17.987Z,12.00
2022-08-07T05:48:15.244Z,12.00
2022-08-07T05:49:15.182Z,12.00
2022-08-07T05:50:15.132Z,12.00
2022-08-07T05:51:15.083Z,12.00
2022-08-07T05:52:15.033Z,16.00
2022-08-07T05:54:13.264Z,16.00
2022-08-07T05:54:44.278Z,16.00
2022-08-07T05:55:14.921Z,12.00
2022-08-07T05:56:14.834Z,12.00
2022-08-07T05:57:14.783Z,12.00
2022-08-07T05:58:14.733Z,12.00
2022-08-07T05:59:14.684Z,12.00
2022-08-07T06:00:16.112Z,12.00
2022-08-07T06:01:14.584Z,12.00
2022-08-07T06:02:17.728Z,16.00
2022-08-07T06:03:14.571Z,16.00
2022-08-07T06:04:14.433Z,16.00
2022-08-07T06:05:15.407Z,16.00
2022-08-07T06:06:17.371Z,16.00
2022-08-07T06:07:22.970Z,16.00
2022-08-07T06:08:30.422Z,12.00
2022-08-07T06:09:14.186Z,12.00
2022-08-07T06:10:15.379Z,12.00
2022-08-07T06:11:14.085Z,16.00
2022-08-07T06:12:15.394Z,16.00
2022-08-07T06:13:15.663Z,16.00
2022-08-07T06:14:21.161Z,16.00
2022-08-07T06:15:15.998Z,16.00
2022-08-07T06:16:13.836Z,16.00
2022-08-07T06:17:13.786Z,16.00
2022-08-07T06:18:14.187Z,16.00
2022-08-07T06:19:17.953Z,16.00
2022-08-07T06:20:31.910Z,16.00
2022-08-07T06:22:15.814Z,16.00
2022-08-07T06:22:22.741Z,16.00
2022-08-07T06:23:46.663Z,16.00
2022-08-07T06:24:45.763Z,16.00
2022-08-07T06:25:13.388Z,16.00
2022-08-07T06:26:13.345Z,16.00
2022-08-07T06:27:13.290Z,16.00
2022-08-07T06:28:14.094Z,16.00
2022-08-07T06:29:13.206Z,16.00
2022-08-07T06:30:35.191Z,20.00
2022-08-07T06:31:13.096Z,20.00
2022-08-07T06:32:13.356Z,16.00
2022-08-07T06:33:15.972Z,16.00
2022-08-07T06:34:12.941Z,16.00
2022-08-07T06:35:17.774Z,16.00
2022-08-07T06:36:14.098Z,16.00
2022-08-07T06:37:20.431Z,16.00
2022-08-07T06:38:20.700Z,20.00
2022-08-07T06:40:16.978Z,20.00
2022-08-07T06:40:20.774Z,20.00
2022-08-07T06:41:12.893Z,20.00
2022-08-07T06:42:12.600Z,20.00
2022-08-07T06:43:21.593Z,16.00
2022-08-07T06:44:12.443Z,20.00
2022-08-07T06:45:12.399Z,16.00
2022-08-07T06:46:12.620Z,16.00
2022-08-07T06:47:15.588Z,16.00
2022-08-07T06:48:12.244Z,20.00
2022-08-07T06:49:12.197Z,20.00
2022-08-07T06:50:12.153Z,20.00
2022-08-07T06:51:12.097Z,20.00
2022-08-07T06:52:12.048Z,20.00
2022-08-07T06:53:49.359Z,20.00
2022-08-07T06:55:30.156Z,20.00
2022-08-07T06:55:34.100Z,20.00
2022-08-07T06:56:15.061Z,24.00
2022-08-07T06:57:11.801Z,20.00
2022-08-07T06:58:11.750Z,24.00
2022-08-07T07:00:12.088Z,20.00
2022-08-07T07:00:17.721Z,20.00
2022-08-07T07:01:11.677Z,20.00
2022-08-07T07:02:11.684Z,20.00
2022-08-07T07:03:14.570Z,20.00
2022-08-07T07:04:33.043Z,20.00
2022-08-07T07:05:12.865Z,20.00
2022-08-07T07:06:11.619Z,20.00
2022-08-07T07:07:58.413Z,24.00
2022-08-07T07:08:12.636Z,20.00
2022-08-07T07:09:11.204Z,24.00
2022-08-07T07:10:11.157Z,24.00
2022-08-07T07:11:14.103Z,24.00
2022-08-07T07:12:18.013Z,24.00
2022-08-07T07:13:11.007Z,24.00
2022-08-07T07:14:10.958Z,20.00
2022-08-07T07:15:23.901Z,24.00
2022-08-07T07:16:10.860Z,20.00
2022-08-07T07:17:15.982Z,20.00
2022-08-07T07:18:10.762Z,24.00
2022-08-07T07:19:19.023Z,20.00
2022-08-07T07:20:10.661Z,24.00
2022-08-07T07:21:13.447Z,24.00
2022-08-07T07:22:12.053Z,24.00
2022-08-07T07:24:10.323Z,24.00
2022-08-07T07:24:12.674Z,24.00
2022-08-07T07:26:30.591Z,24.00
2022-08-07T07:26:32.488Z,24.00
2022-08-07T07:27:10.317Z,20.00
2022-08-07T07:28:42.484Z,20.00
2022-08-07T07:29:39.276Z,24.00
2022-08-07T07:30:11.944Z,24.00
2022-08-07T07:31:10.118Z,24.00
2022-08-07T07:32:10.069Z,24.00
2022-08-07T07:33:11.462Z,24.00
2022-08-07T07:34:09.971Z,28.00
2022-08-07T07:35:09.925Z,24.00
2022-08-07T07:36:13.378Z,28.00
2022-08-07T07:37:22.203Z,28.00
2022-08-07T07:38:09.775Z,24.00
2022-08-07T07:39:09.831Z,28.00
2022-08-07T07:40:14.837Z,24.00
2022-08-07T07:41:09.626Z,24.00
2022-08-07T07:42:13.734Z,28.00
2022-08-07T07:43:15.186Z,24.00
2022-08-07T07:44:16.737Z,28.00
2022-08-07T07:45:09.431Z,28.00
2022-08-07T07:46:37.587Z,24.00
2022-08-07T07:47:22.884Z,20.00
2022-08-07T07:48:09.281Z,28.00
2022-08-07T07:50:33.286Z,24.00
2022-08-07T07:50:36.532Z,24.00
2022-08-07T07:51:09.133Z,24.00
2022-08-07T07:52:09.086Z,28.00
2022-08-07T07:53:13.674Z,28.00
2022-08-07T07:54:08.985Z,24.00
2022-08-07T07:55:08.950Z,28.00
2022-08-07T07:56:08.886Z,24.00
2022-08-07T07:57:08.890Z,24.00
2022-08-07T07:58:08.789Z,24.00
2022-08-07T07:59:08.738Z,28.00
2022-08-07T08:00:09.304Z,28.00
2022-08-07T08:02:03.375Z,28.00
2022-08-07T08:02:10.859Z,24.00
2022-08-07T08:03:08.809Z,28.00
2022-08-07T08:04:11.684Z,28.00
2022-08-07T08:05:11.534Z,28.00
2022-08-07T08:06:08.401Z,28.00
2022-08-07T08:07:08.345Z,28.00
2022-08-07T08:08:32.338Z,24.00
2022-08-07T08:09:08.254Z,24.00
2022-08-07T08:10:08.198Z,28.00
2022-08-07T08:11:09.337Z,28.00
2022-08-07T08:12:08.098Z,28.00
2022-08-07T08:13:10.550Z,28.00
2022-08-07T08:14:08.014Z,44.00
2022-08-07T08:15:07.952Z,20.00
2022-08-07T08:16:07.907Z,24.00
2022-08-07T08:17:55.362Z,28.00
2022-08-07T08:18:17.811Z,24.00
2022-08-07T08:19:09.939Z,24.00
2022-08-07T08:20:17.030Z,28.00
2022-08-07T08:21:07.702Z,28.00
2022-08-07T08:22:07.813Z,24.00
2022-08-07T08:23:08.489Z,28.00
2022-08-07T08:24:07.513Z,28.00
2022-08-07T08:25:24.835Z,24.00
2022-08-07T08:26:07.413Z,28.00
2022-08-07T08:27:09.507Z,24.00
2022-08-07T08:28:07.314Z,24.00
2022-08-07T08:29:08.285Z,28.00
2022-08-07T08:30:07.217Z,28.00
2022-08-07T08:31:07.165Z,28.00
2022-08-07T08:32:18.641Z,24.00
2022-08-07T08:33:15.313Z,28.00
2022-08-07T08:34:07.019Z,24.00
2022-08-07T08:35:06.983Z,28.00
2022-08-07T08:36:06.923Z,24.00
2022-08-07T08:37:09.922Z,24.00
2022-08-07T08:38:06.976Z,24.00
2022-08-07T08:39:06.846Z,28.00
2022-08-07T08:40:06.785Z,24.00
2022-08-07T08:41:06.674Z,28.00
2022-08-07T08:42:06.646Z,28.00
2022-08-07T08:43:06.579Z,28.00
2022-08-07T08:44:06.553Z,24.00
2022-08-07T08:45:06.605Z,28.00
2022-08-07T08:46:06.461Z,28.00
2022-08-07T08:47:06.381Z,28.00
2022-08-07T08:48:06.333Z,28.00
2022-08-07T08:49:06.284Z,32.00
2022-08-07T08:50:06.257Z,28.00
2022-08-07T08:51:14.651Z,28.00
2022-08-07T08:52:12.738Z,28.00
2022-08-07T08:53:06.088Z,28.00
2022-08-07T08:54:06.084Z,28.00
2022-08-07T08:55:07.706Z,28.00
2022-08-07T08:56:05.944Z,28.00
2022-08-07T08:57:05.932Z,32.00
2022-08-07T08:58:05.848Z,28.00
2022-08-07T08:59:06.376Z,28.00
2022-08-07T09:00:05.748Z,28.00
2022-08-07T09:01:15.207Z,28.00
2022-08-07T09:03:48.074Z,32.00
2022-08-07T09:04:47.262Z,28.00
2022-08-07T09:06:38.221Z,28.00
2022-08-07T09:07:46.437Z,28.00
2022-08-07T09:09:33.229Z,28.00
2022-08-07T09:10:29.922Z,32.00
2022-08-07T09:12:31.109Z,28.00
2022-08-07T09:13:35.332Z,28.00
2022-08-07T09:16:23.409Z,28.00
2022-08-07T09:16:24.535Z,32.00
2022-08-07T09:18:11.478Z,28.00
2022-08-07T09:19:07.313Z,28.00
2022-08-07T09:20:34.616Z,32.00
2022-08-07T09:21:05.740Z,32.00
2022-08-07T09:22:22.326Z,32.00
2022-08-07T09:24:31.056Z,32.00
2022-08-07T09:24:32.666Z,32.00
2022-08-07T09:25:11.905Z,32.00
2022-08-07T09:26:05.503Z,32.00
2022-08-07T09:27:09.089Z,32.00
2022-08-07T09:28:05.397Z,36.00
2022-08-07T09:30:06.696Z,32.00
2022-08-07T09:30:08.711Z,32.00
2022-08-07T09:31:05.258Z,32.00
2022-08-07T09:32:05.203Z,32.00
2022-08-07T09:33:16.444Z,32.00
2022-08-07T09:34:05.104Z,32.00
2022-08-07T09:36:02.710Z,36.00
2022-08-07T09:36:07.759Z,32.00
2022-08-07T09:37:04.960Z,32.00
2022-08-07T09:38:04.908Z,32.00
2022-08-07T09:39:11.489Z,32.00
2022-08-07T09:40:04.911Z,28.00
2022-08-07T09:41:04.762Z,28.00
2022-08-07T09:42:07.646Z,28.00
2022-08-07T09:43:04.664Z,32.00
2022-08-07T09:44:06.846Z,28.00
2022-08-07T09:47:23.619Z,32.00
2022-08-07T09:47:24.370Z,28.00
2022-08-07T09:47:50.787Z,32.00
2022-08-07T09:48:11.843Z,28.00
2022-08-07T09:50:02.566Z,32.00
2022-08-07T09:50:18.687Z,28.00
2022-08-07T09:51:04.425Z,32.00
2022-08-07T09:52:16.094Z,32.00
2022-08-07T09:53:04.177Z,32.00
2022-08-07T09:54:04.136Z,32.00
2022-08-07T09:55:04.079Z,32.00
2022-08-07T09:56:05.285Z,32.00
2022-08-07T09:57:03.982Z,32.00
2022-08-07T09:58:03.935Z,32.00
2022-08-07T09:59:07.617Z,36.00
2022-08-07T10:00:03.837Z,28.00
2022-08-07T10:01:03.786Z,32.00
2022-08-07T10:02:03.740Z,32.00
2022-08-07T10:03:07.772Z,32.00
2022-08-07T10:04:14.274Z,36.00
2022-08-07T10:05:12.692Z,36.00
2022-08-07T10:06:10.557Z,36.00
2022-08-07T10:07:03.495Z,36.00
2022-08-07T10:08:03.450Z,32.00
2022-08-07T10:09:03.407Z,32.00
2022-08-07T10:10:03.456Z,36.00
2022-08-07T10:11:17.297Z,36.00
2022-08-07T10:12:15.148Z,36.00
2022-08-07T10:13:03.686Z,36.00
2022-08-07T10:14:03.155Z,36.00
2022-08-07T10:15:03.167Z,36.00
2022-08-07T10:16:03.059Z,36.00
2022-08-07T10:17:03.033Z,36.00
2022-08-07T10:18:03.807Z,32.00
2022-08-07T10:19:02.913Z,36.00
2022-08-07T10:20:02.864Z,32.00
2022-08-07T10:21:02.832Z,32.00
2022-08-07T10:22:16.333Z,36.00
2022-08-07T10:23:02.717Z,32.00
2022-08-07T10:24:05.724Z,36.00
2022-08-07T10:25:02.689Z,36.00
2022-08-07T10:26:02.573Z,32.00
2022-08-07T10:27:02.524Z,32.00
2022-08-07T10:28:02.633Z,32.00
2022-08-07T10:29:02.428Z,36.00
2022-08-07T10:30:02.378Z,32.00
2022-08-07T10:31:02.329Z,32.00
2022-08-07T10:32:02.282Z,32.00
2022-08-07T10:33:02.233Z,32.00
2022-08-07T10:34:14.026Z,32.00
2022-08-07T10:35:02.137Z,32.00
2022-08-07T10:36:05.531Z,32.00
2022-08-07T10:37:03.980Z,32.00
2022-08-07T10:38:21.838Z,32.00
2022-08-07T10:39:01.984Z,32.00
2022-08-07T10:40:06.192Z,32.00
2022-08-07T10:41:01.845Z,32.00
2022-08-07T10:42:09.753Z,32.00
2022-08-07T10:43:01.748Z,32.00
2022-08-07T10:44:07.396Z,32.00
2022-08-07T10:45:01.691Z,32.00
2022-08-07T10:46:01.604Z,32.00
2022-08-07T10:47:01.564Z,36.00
2022-08-07T10:48:03.772Z,32.00
2022-08-07T10:49:01.461Z,32.00
2022-08-07T10:50:01.413Z,32.00
2022-08-07T10:51:01.359Z,32.00
2022-08-07T10:52:12.923Z,32.00
2022-08-07T10:53:07.973Z,32.00
2022-08-07T10:54:01.217Z,32.00
2022-08-07T10:55:07.932Z,32.00
2022-08-07T10:56:02.383Z,32.00
2022-08-07T10:57:01.073Z,32.00
2022-08-07T10:58:01.021Z,32.00
2022-08-07T10:59:00.972Z,32.00
2022-08-07T11:00:00.925Z,32.00
2022-08-07T11:01:00.920Z,32.00
2022-08-07T11:02:04.775Z,32.00
2022-08-07T11:03:00.913Z,32.00
2022-08-07T11:04:16.550Z,32.00
2022-08-07T11:05:04.209Z,32.00
2022-08-07T11:06:00.636Z,32.00
2022-08-07T11:07:00.584Z,32.00
2022-08-07T11:08:03.442Z,36.00
2022-08-07T11:09:00.487Z,32.00
2022-08-07T11:10:09.923Z,36.00
2022-08-07T11:11:00.399Z,32.00
2022-08-07T11:12:00.350Z,36.00
2022-08-07T11:13:01.951Z,36.00
2022-08-07T11:14:44.810Z,36.00
2022-08-07T11:15:01.066Z,36.00
2022-08-07T11:16:00.151Z,32.00
2022-08-07T11:17:02.223Z,32.00
2022-08-07T11:18:03.738Z,32.00
2022-08-07T11:19:00.004Z,36.00
2022-08-07T11:19:59.994Z,36.00
2022-08-07T11:20:59.908Z,36.00
2022-08-07T11:22:00.221Z,36.00
2022-08-07T11:22:59.816Z,36.00
2022-08-07T11:24:00.355Z,40.00
2022-08-07T11:24:59.714Z,40.00
2022-08-07T11:26:06.501Z,40.00
2022-08-07T11:27:01.208Z,40.00
2022-08-07T11:28:02.870Z,44.00
2022-08-07T11:28:59.522Z,44.00
2022-08-07T11:30:18.005Z,44.00
2022-08-07T11:30:59.426Z,44.00
2022-08-07T11:31:59.377Z,44.00
2022-08-07T11:32:59.326Z,48.00
2022-08-07T11:34:00.815Z,44.00
2022-08-07T11:34:59.229Z,48.00
2022-08-07T11:36:01.394Z,44.00
2022-08-07T11:37:00.256Z,48.00
2022-08-07T11:38:12.855Z,48.00
2022-08-07T11:38:59.115Z,48.00
2022-08-07T11:40:03.467Z,48.00
2022-08-07T11:40:58.941Z,48.00
2022-08-07T11:42:00.287Z,52.00
2022-08-07T11:42:59.087Z,52.00
2022-08-07T11:44:12.830Z,52.00
2022-08-07T11:44:58.747Z,52.00
2022-08-07T11:45:58.709Z,52.00
2022-08-07T11:46:58.651Z,52.00
2022-08-07T11:47:59.405Z,52.00
2022-08-07T11:49:50.512Z,52.00
2022-08-07T11:50:30.345Z,52.00
2022-08-07T11:50:58.487Z,52.00
2022-08-07T11:51:58.415Z,52.00
2022-08-07T11:52:58.362Z,52.00
2022-08-07T11:54:00.559Z,52.00
2022-08-07T11:54:58.265Z,52.00
2022-08-07T11:56:24.842Z,52.00
2022-08-07T11:56:58.170Z,56.00
2022-08-07T11:58:01.251Z,56.00
2022-08-07T11:58:58.814Z,52.00
2022-08-07T12:00:11.877Z,56.00
2022-08-07T12:01:02.663Z,52.00
2022-08-07T12:02:00.744Z,52.00
2022-08-07T12:02:57.914Z,52.00
2022-08-07T12:03:57.875Z,52.00
2022-08-07T12:04:57.795Z,52.00
2022-08-07T12:05:58.429Z,52.00
2022-08-07T12:07:03.938Z,48.00
2022-08-07T12:08:04.132Z,48.00
2022-08-07T12:08:57.593Z,52.00
2022-08-07T12:09:57.545Z,52.00
2022-08-07T12:11:08.172Z,52.00
2022-08-07T12:12:10.647Z,52.00
2022-08-07T12:12:57.401Z,52.00
2022-08-07T12:13:57.351Z,48.00
2022-08-07T12:15:01.214Z,52.00
2022-08-07T12:16:06.820Z,48.00
2022-08-07T12:16:57.207Z,48.00
2022-08-07T12:17:59.661Z,48.00
2022-08-07T12:18:57.110Z,48.00
2022-08-07T12:20:02.621Z,48.00
2022-08-07T12:20:57.018Z,48.00
2022-08-07T12:22:37.079Z,48.00
2022-08-07T12:22:58.866Z,48.00
2022-08-07T12:24:07.557Z,48.00
2022-08-07T12:25:02.256Z,48.00
2022-08-07T12:26:03.390Z,48.00
2022-08-07T12:26:56.728Z,44.00
2022-08-07T12:28:08.944Z,44.00
2022-08-07T12:28:56.636Z,44.00
2022-08-07T12:29:56.582Z,48.00
2022-08-07T12:30:56.535Z,48.00
2022-08-07T12:32:03.824Z,48.00
2022-08-07T12:32:56.440Z,44.00
2022-08-07T12:34:01.772Z,44.00
2022-08-07T12:34:56.582Z,44.00
2022-08-07T12:35:58.174Z,44.00
2022-08-07T12:36:56.253Z,48.00
2022-08-07T12:38:09.038Z,44.00
2022-08-07T12:38:57.581Z,44.00
2022-08-07T12:39:57.336Z,44.00
2022-08-07T12:40:56.076Z,44.00
2022-08-07T12:41:56.007Z,48.00
2022-08-07T12:42:57.243Z,44.00
2022-08-07T12:44:04.205Z,44.00
2022-08-07T12:44:55.864Z,48.00
2022-08-07T12:46:02.474Z,48.00
2022-08-07T12:46:55.768Z,48.00
2022-08-07T12:47:55.718Z,48.00
2022-08-07T12:48:55.673Z,44.00
2022-08-07T12:50:39.451Z,44.00
2022-08-07T12:50:55.577Z,44.00
2022-08-07T12:52:14.283Z,44.00
2022-08-07T12:52:55.480Z,44.00
2022-08-07T12:54:02.622Z,44.00
2022-08-07T12:54:57.314Z,44.00
2022-08-07T12:56:02.038Z,44.00
2022-08-07T12:56:55.356Z,44.00
2022-08-07T12:58:02.370Z,44.00
2022-08-07T12:58:58.005Z,44.00
2022-08-07T12:59:55.963Z,44.00
2022-08-07T13:00:56.833Z,40.00
2022-08-07T13:01:55.101Z,40.00
2022-08-07T13:02:55.001Z,44.00
2022-08-07T13:04:02.990Z,44.00
2022-08-07T13:05:02.485Z,44.00
2022-08-07T13:06:04.716Z,44.00
2022-08-07T13:07:00.949Z,40.00
2022-08-07T13:08:14.250Z,40.00
2022-08-07T13:08:54.715Z,40.00